Smithfield - 24 Hour Table
Date & TimeSolar
Radiation
(W/m²)
Wind
Speed
(mph)
Wind
Direction
(degrees)
Air
Temperature
(°F)
Relative
Humidity
(%)
Precipitation
(inches)
2019/12/15 16:00 119 2.0 338 19.1 89 0.00
2019/12/15 15:00 319 2.9 343 22.3 85 0.00
2019/12/15 14:00 370 2.7 179 22.0 77 0.00
2019/12/15 13:00 417 1.9 171 21.7 79 0.00
2019/12/15 12:00 361 0.0 341 18.8 84 0.00
2019/12/15 11:00 292 0.0 339 19.2 88 0.00
2019/12/15 10:00 159 0.0 28 18.4 77 0.00
2019/12/15 09:00 23 0.0 115 17.1 84 0.00
2019/12/15 08:00 0 0.0 55 15.0 85 0.00
2019/12/15 07:00 0 0.0 64 13.2 95 0.00
2019/12/15 06:00 0 0.0 64 14.6 87 0.00
2019/12/15 05:00 0 0.0 65 15.0 88 0.00
2019/12/15 04:00 0 0.0 58 16.7 91 0.00
2019/12/15 03:00 0 0.0 75 18.0 89 0.00
2019/12/15 02:00 0 0.0 53 20.3 82 0.00
2019/12/15 01:00 0 0.0 64 20.2 86 0.00
2019/12/15 00:00 0 0.0 66 21.1 86 0.00
2019/12/14 23:00 0 0.0 64 21.6 91 0.00
2019/12/14 22:00 0 0.0 59 23.8 91 0.00
2019/12/14 21:00 0 0.0 57 26.2 93 0.00
2019/12/14 20:00 0 0.0 53 26.8 94 0.00
2019/12/14 19:00 0 0.0 127 27.2 93 0.00
2019/12/14 18:00 0 0.0 90 27.9 93 0.00
2019/12/14 17:00 20 0.2 20 28.8 90 0.00